Time;durP1;ratioP1;P1;durP2;ratioP2;P2;SDS_P1;SDS_P2;PMS_P1;PMS_P2;Temp;Humidity;BMP_temperature;BMP_pressure;BME280_temperature;BME280_humidity;BME280_pressure;Samples;Min_cycle;Max_cycle;Signal;HPM_P1;HPM_P2
2023/06/26 00:01:57;;;;;;;12.43;10.05;;;20.50;68.40;;;;;;5034805;28;20040;-63
2023/06/26 00:04:23;;;;;;;10.90;9.75;;;20.50;68.60;;;;;;5035383;28;20144;-63
2023/06/26 00:06:48;;;;;;;11.52;10.02;;;20.50;68.60;;;;;;5044874;28;20489;-63
2023/06/26 00:09:14;;;;;;;10.30;9.07;;;20.50;68.70;;;;;;5037460;28;20449;-63
2023/06/26 00:11:40;;;;;;;12.25;9.95;;;20.50;68.60;;;;;;5038977;28;20033;-64
2023/06/26 00:14:06;;;;;;;13.05;10.93;;;20.50;68.80;;;;;;5028636;28;20037;-62
2023/06/26 00:16:31;;;;;;;15.95;10.55;;;20.50;68.80;;;;;;5047972;28;20103;-63
2023/06/26 00:18:58;;;;;;;11.43;10.05;;;20.50;69.00;;;;;;5046686;28;20045;-63
2023/06/26 00:21:25;;;;;;;13.52;11.20;;;20.40;69.00;;;;;;5049887;28;20040;-63
2023/06/26 00:23:50;;;;;;;12.55;10.25;;;20.50;69.10;;;;;;5039384;28;20075;-63
2023/06/26 00:26:16;;;;;;;12.93;10.77;;;20.40;69.10;;;;;;5032231;28;20080;-63
2023/06/26 00:28:41;;;;;;;11.80;10.27;;;20.50;69.20;;;;;;5036745;28;20120;-63
2023/06/26 00:31:07;;;;;;;14.48;11.27;;;20.50;69.20;;;;;;5039346;28;20473;-63
2023/06/26 00:33:32;;;;;;;12.13;10.73;;;20.50;69.30;;;;;;5039614;28;20064;-65
2023/06/26 00:35:58;;;;;;;13.43;11.13;;;20.50;69.30;;;;;;5042835;28;20033;-63
2023/06/26 00:38:24;;;;;;;12.55;11.00;;;20.50;69.20;;;;;;5048039;28;20503;-62
2023/06/26 00:40:50;;;;;;;13.02;10.82;;;20.50;69.20;;;;;;5043777;28;20055;-63
2023/06/26 00:43:15;;;;;;;13.23;11.57;;;20.50;69.20;;;;;;5046624;28;20057;-63
2023/06/26 00:45:41;;;;;;;13.80;10.65;;;20.50;69.10;;;;;;5040980;28;20033;-62
2023/06/26 00:48:06;;;;;;;13.82;12.10;;;20.60;69.10;;;;;;5042284;28;20084;-63
2023/06/26 00:50:32;;;;;;;13.32;10.77;;;20.50;69.00;;;;;;5046816;28;20053;-63
2023/06/26 00:53:00;;;;;;;14.93;11.73;;;20.60;69.00;;;;;;5043121;28;20630;-63
2023/06/26 00:55:26;;;;;;;14.43;11.93;;;20.60;69.10;;;;;;5042716;28;20048;-62
2023/06/26 00:57:53;;;;;;;15.38;12.10;;;20.60;69.10;;;;;;5038530;28;20033;-63
2023/06/26 01:00:19;;;;;;;13.73;12.32;;;20.50;69.10;;;;;;5035579;28;20044;-63
2023/06/26 01:02:45;;;;;;;14.15;11.85;;;20.50;69.20;;;;;;5040545;28;20531;-63
2023/06/26 01:05:12;;;;;;;13.95;12.38;;;20.50;69.30;;;;;;5039417;28;20041;-63
2023/06/26 01:07:39;;;;;;;17.10;13.00;;;20.50;69.40;;;;;;5047430;28;20361;-63
2023/06/26 01:10:06;;;;;;;13.35;11.45;;;20.50;69.50;;;;;;5042955;28;20045;-64
2023/06/26 01:12:33;;;;;;;14.18;12.48;;;20.40;69.70;;;;;;5035598;28;20361;-62
2023/06/26 01:14:59;;;;;;;15.55;12.38;;;20.30;69.80;;;;;;5033940;28;20107;-63
2023/06/26 01:17:31;;;;;;;13.52;12.13;;;20.30;70.00;;;;;;5038726;28;20041;-62
2023/06/26 01:20:00;;;;;;;14.30;12.75;;;20.30;70.10;;;;;;5041201;28;20052;-63
2023/06/26 01:22:44;;;;;;;15.63;12.10;;;20.30;70.10;;;;;;5035542;28;20111;-64
2023/06/26 01:25:38;;;;;;;15.20;12.77;;;20.30;70.20;;;;;;5037707;28;20287;-64
2023/06/26 01:28:05;;;;;;;13.45;12.02;;;20.20;71.00;;;;;;5038621;28;20370;-63
2023/06/26 01:30:32;;;;;;;14.20;12.68;;;20.10;70.50;;;;;;5035572;28;20056;-63
2023/06/26 01:32:59;;;;;;;17.25;12.57;;;20.10;70.70;;;;;;5035207;28;20155;-63
2023/06/26 01:35:25;;;;;;;15.40;12.63;;;20.10;70.80;;;;;;5034542;28;20041;-62
2023/06/26 01:37:50;;;;;;;14.48;11.80;;;20.10;71.00;;;;;;5033081;28;20143;-63
2023/06/26 01:40:16;;;;;;;15.68;12.07;;;20.10;71.20;;;;;;5038030;28;20125;-63
2023/06/26 01:42:42;;;;;;;13.95;12.25;;;20.00;71.30;;;;;;5043560;28;20048;-62
2023/06/26 01:45:14;;;;;;;14.63;12.73;;;20.00;71.50;;;;;;5037931;28;20447;-63
2023/06/26 01:47:46;;;;;;;14.63;12.40;;;20.00;71.90;;;;;;5033249;28;20097;-64
2023/06/26 01:50:20;;;;;;;15.88;12.60;;;19.90;72.10;;;;;;5041450;28;20033;-64
2023/06/26 01:53:07;;;;;;;13.70;12.15;;;19.80;72.40;;;;;;5036963;28;20030;-63
2023/06/26 01:55:44;;;;;;;16.05;12.70;;;19.80;73.10;;;;;;5030806;28;20039;-65
2023/06/26 01:58:10;;;;;;;14.85;12.07;;;19.70;73.30;;;;;;5042187;28;20037;-63
2023/06/26 02:00:37;;;;;;;14.23;12.73;;;19.70;72.70;;;;;;5039471;28;21120;-64
2023/06/26 02:03:04;;;;;;;13.90;11.88;;;19.70;73.00;;;;;;5043379;28;20056;-63
2023/06/26 02:05:30;;;;;;;14.50;12.32;;;19.60;73.10;;;;;;5036518;28;20393;-62
2023/06/26 02:07:56;;;;;;;15.05;12.25;;;19.60;73.30;;;;;;5028203;28;20477;-63
2023/06/26 02:10:22;;;;;;;13.57;12.18;;;19.50;73.50;;;;;;5043974;28;20037;-64
2023/06/26 02:12:47;;;;;;;13.68;12.20;;;19.50;73.70;;;;;;5042073;28;20037;-62
2023/06/26 02:15:13;;;;;;;13.45;12.00;;;19.40;73.90;;;;;;5039872;28;20037;-63
2023/06/26 02:17:38;;;;;;;16.02;12.63;;;19.40;74.10;;;;;;5043000;28;20081;-63
2023/06/26 02:20:05;;;;;;;15.15;11.68;;;19.40;74.40;;;;;;5048514;28;20041;-64
2023/06/26 02:22:31;;;;;;;16.02;11.88;;;19.40;74.50;;;;;;5042411;28;20088;-63
2023/06/26 02:24:56;;;;;;;16.00;12.52;;;19.30;74.70;;;;;;5039956;28;20072;-63
2023/06/26 02:27:22;;;;;;;15.30;12.15;;;19.30;74.90;;;;;;5044406;28;20043;-62
2023/06/26 02:29:48;;;;;;;14.00;11.95;;;19.20;75.00;;;;;;5038115;28;20041;-63
2023/06/26 02:32:13;;;;;;;12.82;10.82;;;19.20;75.10;;;;;;5039086;28;20424;-62
2023/06/26 02:34:39;;;;;;;14.45;12.38;;;19.20;75.30;;;;;;5033320;28;20063;-62
2023/06/26 02:37:06;;;;;;;15.95;12.02;;;19.20;75.50;;;;;;5048383;28;20447;-63
2023/06/26 02:39:32;;;;;;;14.15;11.52;;;19.20;75.70;;;;;;5048680;28;20395;-62
2023/06/26 02:41:57;;;;;;;14.13;12.10;;;19.10;75.90;;;;;;5043240;28;20041;-63
2023/06/26 02:44:23;;;;;;;15.05;11.07;;;19.00;76.00;;;;;;5042730;28;20132;-62
2023/06/26 02:46:48;;;;;;;13.30;11.27;;;19.10;76.20;;;;;;5041838;28;20040;-63
2023/06/26 02:49:14;;;;;;;14.30;10.50;;;19.20;75.70;;;;;;5043066;28;20049;-62
2023/06/26 02:51:39;;;;;;;12.23;10.82;;;19.30;75.80;;;;;;5049054;28;20094;-63
2023/06/26 02:54:05;;;;;;;11.48;9.65;;;19.30;75.50;;;;;;5041502;28;20044;-63
2023/06/26 02:56:31;;;;;;;13.48;10.95;;;19.50;75.30;;;;;;5043256;28;20033;-64
2023/06/26 02:58:57;;;;;;;13.43;10.85;;;19.50;75.60;;;;;;5040004;28;20398;-67
2023/06/26 03:01:23;;;;;;;14.65;10.20;;;19.60;74.70;;;;;;5048711;28;20075;-62
2023/06/26 03:03:48;;;;;;;13.23;10.60;;;19.80;74.30;;;;;;5041777;28;20165;-62
2023/06/26 03:06:15;;;;;;;15.80;10.45;;;19.80;74.10;;;;;;5046549;28;20041;-63
2023/06/26 03:08:40;;;;;;;12.15;10.85;;;19.90;73.80;;;;;;5044022;28;20512;-63
2023/06/26 03:11:07;;;;;;;12.63;11.07;;;20.00;73.50;;;;;;5040483;28;20144;-62
2023/06/26 03:13:34;;;;;;;12.68;10.57;;;20.10;73.20;;;;;;5045798;28;20036;-62
2023/06/26 03:16:00;;;;;;;13.80;11.30;;;20.10;73.00;;;;;;5038877;28;20037;-62
2023/06/26 03:18:25;;;;;;;14.95;12.38;;;20.10;73.00;;;;;;5045595;28;20050;-62
2023/06/26 03:20:53;;;;;;;12.88;10.65;;;20.20;73.20;;;;;;5049118;28;20476;-62
2023/06/26 03:23:20;;;;;;;15.48;11.38;;;20.20;72.70;;;;;;5034986;28;20041;-62
2023/06/26 03:25:45;;;;;;;12.07;10.75;;;20.20;72.70;;;;;;5047609;28;20037;-62
2023/06/26 03:28:11;;;;;;;14.00;11.88;;;20.10;72.80;;;;;;5043893;28;20048;-63
2023/06/26 03:30:36;;;;;;;13.32;11.38;;;20.10;72.90;;;;;;5041838;28;20128;-62
2023/06/26 03:33:02;;;;;;;15.10;12.13;;;20.20;72.90;;;;;;5039736;28;20060;-62
2023/06/26 03:35:27;;;;;;;14.77;12.23;;;20.20;72.70;;;;;;5046618;28;20033;-63
2023/06/26 03:37:53;;;;;;;13.85;11.80;;;20.20;72.70;;;;;;5044687;28;20037;-63
2023/06/26 03:40:19;;;;;;;14.77;11.90;;;20.30;72.60;;;;;;5040266;28;20052;-63
2023/06/26 03:42:44;;;;;;;14.00;11.00;;;20.30;72.40;;;;;;5031269;28;20033;-63
2023/06/26 03:45:10;;;;;;;13.30;11.77;;;20.30;72.10;;;;;;5036081;28;20148;-63
2023/06/26 03:47:35;;;;;;;15.55;12.15;;;20.40;72.00;;;;;;5046147;28;20057;-62
2023/06/26 03:50:01;;;;;;;14.55;10.75;;;20.40;71.90;;;;;;5043841;28;20659;-64
2023/06/26 03:52:26;;;;;;;12.30;10.65;;;20.40;71.80;;;;;;5049804;28;20067;-62
2023/06/26 03:54:52;;;;;;;14.50;10.90;;;20.50;71.40;;;;;;5044195;28;20047;-64
2023/06/26 03:57:17;;;;;;;13.48;10.95;;;20.60;71.20;;;;;;5046134;28;20325;-63
2023/06/26 03:59:43;;;;;;;12.95;9.95;;;20.60;71.80;;;;;;5046362;28;20446;-63
2023/06/26 04:02:08;;;;;;;12.07;10.18;;;20.70;70.80;;;;;;5040285;28;20559;-63
2023/06/26 04:04:34;;;;;;;15.35;10.18;;;20.70;70.60;;;;;;5035334;28;20037;-63
2023/06/26 04:07:00;;;;;;;14.63;9.70;;;20.80;70.40;;;;;;5045080;28;20098;-62
2023/06/26 04:09:26;;;;;;;10.48;8.73;;;20.80;70.20;;;;;;5044927;28;20036;-62
2023/06/26 04:11:51;;;;;;;11.63;8.98;;;20.90;70.00;;;;;;5046199;28;20039;-62
2023/06/26 04:14:17;;;;;;;11.07;9.15;;;21.00;69.80;;;;;;5046019;28;20040;-63
2023/06/26 04:16:43;;;;;;;12.48;8.30;;;21.00;69.70;;;;;;5044712;28;20043;-64
2023/06/26 04:19:09;;;;;;;12.18;8.55;;;21.10;69.60;;;;;;5030699;28;20072;-62
2023/06/26 04:21:35;;;;;;;12.05;8.50;;;21.10;69.50;;;;;;5048506;28;20532;-62
2023/06/26 04:24:01;;;;;;;11.90;8.25;;;21.20;69.50;;;;;;5032519;28;20102;-63
2023/06/26 04:26:27;;;;;;;11.55;8.48;;;21.20;69.40;;;;;;5049130;28;20033;-63
2023/06/26 04:28:53;;;;;;;11.60;8.32;;;21.20;69.40;;;;;;5047014;28;20036;-63
2023/06/26 04:31:19;;;;;;;10.95;8.18;;;21.20;69.50;;;;;;5045422;28;20098;-63
2023/06/26 04:33:44;;;;;;;10.65;7.65;;;21.20;69.40;;;;;;5044643;28;20033;-63
2023/06/26 04:36:11;;;;;;;8.18;7.15;;;21.20;69.50;;;;;;5049293;28;20149;-64
2023/06/26 04:38:36;;;;;;;10.65;7.70;;;21.20;69.60;;;;;;5048465;28;20103;-62
2023/06/26 04:41:02;;;;;;;10.25;7.35;;;21.20;69.80;;;;;;5031917;28;20403;-62
2023/06/26 04:43:28;;;;;;;10.02;7.68;;;21.20;69.80;;;;;;5049080;28;20064;-62
2023/06/26 04:45:54;;;;;;;9.63;7.60;;;21.20;69.90;;;;;;5045272;28;20041;-62
2023/06/26 04:48:19;;;;;;;12.40;8.00;;;21.20;69.90;;;;;;5045336;28;20049;-63
2023/06/26 04:50:53;;;;;;;10.93;7.53;;;21.20;70.00;;;;;;5040275;28;20123;-64
2023/06/26 04:53:22;;;;;;;10.63;7.78;;;21.20;70.10;;;;;;5034386;28;20461;-62
2023/06/26 04:55:49;;;;;;;10.07;8.05;;;21.20;70.10;;;;;;5040005;28;20051;-63
2023/06/26 04:58:16;;;;;;;10.90;7.88;;;21.20;70.40;;;;;;5044065;28;20033;-62
2023/06/26 05:00:42;;;;;;;9.82;7.68;;;21.30;70.40;;;;;;5045434;28;20314;-63
2023/06/26 05:03:16;;;;;;;11.48;7.90;;;21.30;70.30;;;;;;5048510;28;20186;-62
2023/06/26 05:05:42;;;;;;;11.80;8.38;;;21.40;70.30;;;;;;5037860;28;20041;-63
2023/06/26 05:08:15;;;;;;;12.77;8.43;;;21.50;70.20;;;;;;5037602;28;20045;-63
2023/06/26 05:10:41;;;;;;;13.35;8.07;;;21.60;70.30;;;;;;5038006;28;20096;-62
2023/06/26 05:13:06;;;;;;;11.57;8.00;;;21.80;70.20;;;;;;5046892;28;20064;-62
2023/06/26 05:15:32;;;;;;;16.15;8.15;;;21.90;70.10;;;;;;5039779;28;20037;-63
2023/06/26 05:17:57;;;;;;;11.98;7.25;;;22.00;70.00;;;;;;5040919;28;20128;-62
2023/06/26 05:20:23;;;;;;;10.10;7.10;;;22.10;69.90;;;;;;5040231;28;20079;-64
2023/06/26 05:22:49;;;;;;;9.27;6.75;;;22.20;69.80;;;;;;5034360;28;20060;-62
2023/06/26 05:25:15;;;;;;;12.48;6.88;;;22.20;69.80;;;;;;5034286;28;20147;-62
2023/06/26 05:27:41;;;;;;;10.57;7.05;;;22.20;69.90;;;;;;5035437;28;20037;-62
2023/06/26 05:30:07;;;;;;;11.48;6.97;;;22.20;70.00;;;;;;5032157;28;20042;-64
2023/06/26 05:32:35;;;;;;;11.45;6.97;;;22.20;70.10;;;;;;5034699;28;20058;-62
2023/06/26 05:35:03;;;;;;;12.95;6.70;;;22.10;70.30;;;;;;5039532;28;20041;-62
2023/06/26 05:37:30;;;;;;;11.70;6.40;;;22.10;70.40;;;;;;5034213;28;20155;-62
2023/06/26 05:39:56;;;;;;;13.43;6.55;;;22.10;70.60;;;;;;5033855;28;21128;-64
2023/06/26 05:42:22;;;;;;;11.57;7.35;;;22.20;70.50;;;;;;5037283;28;20139;-63
2023/06/26 05:44:47;;;;;;;12.48;6.78;;;22.20;70.40;;;;;;5033890;28;20044;-64
2023/06/26 05:47:13;;;;;;;12.75;6.85;;;22.10;70.60;;;;;;5034935;28;20067;-63
2023/06/26 05:49:38;;;;;;;11.45;6.85;;;22.20;70.40;;;;;;5036258;28;20056;-62
2023/06/26 05:52:04;;;;;;;10.30;6.63;;;22.20;70.20;;;;;;5038734;28;20414;-65
2023/06/26 05:54:30;;;;;;;11.68;6.25;;;22.30;70.10;;;;;;5039616;28;20476;-63
2023/06/26 05:56:59;;;;;;;14.88;6.32;;;22.30;70.20;;;;;;5038122;28;20037;-64
2023/06/26 05:59:26;;;;;;;13.10;6.88;;;22.30;70.80;;;;;;5031291;28;20046;-63
2023/06/26 06:01:52;;;;;;;12.75;6.18;;;22.40;69.80;;;;;;5030269;28;20434;-63
2023/06/26 06:04:17;;;;;;;13.00;6.50;;;22.40;69.80;;;;;;5027944;28;20057;-64
2023/06/26 06:06:43;;;;;;;13.73;5.70;;;22.30;70.00;;;;;;5030975;28;20135;-63
2023/06/26 06:09:09;;;;;;;10.95;5.40;;;22.20;69.90;;;;;;5041468;28;20033;-63
2023/06/26 06:11:34;;;;;;;12.38;6.30;;;22.20;69.70;;;;;;5042737;28;20049;-62
2023/06/26 06:14:00;;;;;;;11.60;6.75;;;22.10;70.00;;;;;;5028732;28;20044;-64
2023/06/26 06:16:28;;;;;;;10.05;6.30;;;22.00;70.20;;;;;;5036511;28;20048;-62
2023/06/26 06:18:53;;;;;;;9.98;4.90;;;21.80;70.50;;;;;;5022495;28;20033;-65
2023/06/26 06:21:19;;;;;;;11.32;5.53;;;21.80;70.70;;;;;;5057380;28;20079;-63
2023/06/26 06:23:45;;;;;;;11.60;5.97;;;21.70;70.60;;;;;;5040392;28;20118;-63
2023/06/26 06:26:11;;;;;;;8.73;5.15;;;21.70;70.70;;;;;;5042976;28;20251;-64
2023/06/26 06:28:36;;;;;;;9.75;5.13;;;21.60;71.00;;;;;;5032870;28;20470;-62
2023/06/26 06:31:02;;;;;;;16.13;5.45;;;21.50;71.00;;;;;;5035429;28;20041;-61
2023/06/26 06:33:28;;;;;;;9.73;5.68;;;21.50;71.00;;;;;;5042081;28;20068;-62
2023/06/26 06:35:53;;;;;;;12.05;5.15;;;21.40;71.20;;;;;;5047491;28;20537;-60
2023/06/26 06:38:19;;;;;;;8.15;4.57;;;21.50;71.30;;;;;;5049037;28;20037;-63
2023/06/26 06:40:44;;;;;;;14.80;5.43;;;21.70;71.10;;;;;;5046229;28;20079;-63
2023/06/26 06:43:10;;;;;;;11.90;5.38;;;21.90;70.60;;;;;;5043009;28;20044;-63
2023/06/26 06:45:37;;;;;;;11.35;4.60;;;22.10;70.20;;;;;;5026132;28;20095;-62
2023/06/26 06:48:03;;;;;;;10.15;3.80;;;22.30;69.50;;;;;;5042478;28;20412;-63
2023/06/26 06:50:29;;;;;;;10.57;3.80;;;22.40;68.60;;;;;;5036437;28;20045;-63
2023/06/26 06:52:54;;;;;;;7.20;3.38;;;22.50;67.80;;;;;;5048501;28;20456;-63
2023/06/26 06:55:20;;;;;;;10.02;3.67;;;22.50;67.50;;;;;;5031425;28;20056;-63
2023/06/26 06:57:45;;;;;;;8.55;3.53;;;22.50;67.20;;;;;;5035547;28;20064;-62
2023/06/26 07:00:14;;;;;;;8.15;3.22;;;22.40;67.10;;;;;;5043464;28;20053;-63
2023/06/26 07:02:43;;;;;;;8.30;3.13;;;22.70;66.90;;;;;;5035305;28;20088;-63
2023/06/26 07:05:09;;;;;;;10.60;3.40;;;22.90;63.70;;;;;;5035892;28;20916;-65
2023/06/26 07:07:36;;;;;;;6.03;2.42;;;23.30;66.10;;;;;;5035407;28;20307;-63
2023/06/26 07:10:10;;;;;;;9.73;3.10;;;23.60;63.40;;;;;;5028914;28;20052;-63
2023/06/26 07:12:36;;;;;;;6.53;2.47;;;23.90;61.60;;;;;;5038481;28;20030;-64
2023/06/26 07:15:02;;;;;;;7.10;2.53;;;24.10;62.40;;;;;;5043673;28;20034;-65
2023/06/26 07:17:28;;;;;;;8.02;2.35;;;24.30;61.70;;;;;;5039866;28;20069;-63
2023/06/26 07:19:54;;;;;;;7.78;2.35;;;24.70;60.60;;;;;;5037698;28;20087;-62
2023/06/26 07:22:20;;;;;;;5.82;2.25;;;24.80;59.80;;;;;;5039185;28;20086;-61
2023/06/26 07:24:47;;;;;;;5.45;2.50;;;24.80;58.30;;;;;;5039391;28;20155;-62
2023/06/26 07:27:18;;;;;;;6.63;2.22;;;24.90;57.60;;;;;;5042867;28;20436;-63
2023/06/26 07:29:43;;;;;;;6.28;1.90;;;25.10;57.20;;;;;;5049046;28;20032;-64
2023/06/26 07:32:09;;;;;;;6.45;1.60;;;25.50;56.60;;;;;;5050389;28;20111;-63
2023/06/26 07:34:35;;;;;;;3.72;2.00;;;25.80;55.70;;;;;;5039778;28;20048;-63
2023/06/26 07:37:00;;;;;;;3.00;1.42;;;25.90;54.80;;;;;;5041943;28;20041;-62
2023/06/26 07:39:26;;;;;;;5.63;2.00;;;26.20;54.40;;;;;;5046287;28;20120;-65
2023/06/26 07:41:52;;;;;;;5.47;2.15;;;26.50;53.40;;;;;;5043072;28;20120;-64
2023/06/26 07:44:18;;;;;;;7.63;2.28;;;26.50;52.40;;;;;;5043526;28;20123;-63
2023/06/26 07:46:44;;;;;;;6.93;1.88;;;26.50;52.20;;;;;;5044056;28;20561;-62
2023/06/26 07:49:10;;;;;;;4.45;1.90;;;26.60;51.60;;;;;;5043716;28;20064;-63
2023/06/26 07:51:36;;;;;;;6.43;1.70;;;26.60;50.10;;;;;;5047174;28;20168;-63
2023/06/26 07:54:01;;;;;;;5.25;1.70;;;26.50;49.80;;;;;;5043332;28;20430;-63
2023/06/26 07:56:27;;;;;;;3.55;1.58;;;26.20;48.30;;;;;;5032086;28;20041;-64
2023/06/26 07:58:52;;;;;;;6.35;2.13;;;26.20;49.90;;;;;;5030626;28;20108;-63
2023/06/26 08:01:18;;;;;;;7.60;2.13;;;26.50;49.20;;;;;;5036028;28;20041;-64
2023/06/26 08:03:44;;;;;;;3.13;1.35;;;26.80;48.90;;;;;;5045205;28;20041;-63
2023/06/26 08:06:10;;;;;;;4.90;1.70;;;27.10;48.30;;;;;;5036378;28;20059;-64
2023/06/26 08:08:35;;;;;;;6.30;1.48;;;27.40;47.60;;;;;;5043235;28;20068;-63
2023/06/26 08:11:01;;;;;;;2.85;1.45;;;27.10;47.20;;;;;;5032411;28;20056;-63
2023/06/26 08:13:27;;;;;;;4.40;1.88;;;27.40;45.90;;;;;;5029697;28;20049;-63
2023/06/26 08:15:53;;;;;;;2.15;1.15;;;27.40;45.80;;;;;;5028237;28;20116;-63
2023/06/26 08:18:18;;;;;;;5.68;1.67;;;27.50;45.10;;;;;;5040946;28;20056;-63
2023/06/26 08:20:44;;;;;;;4.63;1.60;;;27.60;45.00;;;;;;5044027;28;20041;-65
2023/06/26 08:23:09;;;;;;;3.08;1.52;;;27.60;44.80;;;;;;5044591;28;20266;-63
2023/06/26 08:25:35;;;;;;;5.95;1.58;;;27.20;45.20;;;;;;5043141;28;20037;-63
2023/06/26 08:28:01;;;;;;;5.43;1.75;;;27.10;45.10;;;;;;5043726;28;20071;-63
2023/06/26 08:30:28;;;;;;;4.18;1.40;;;26.80;44.80;;;;;;5042609;28;20083;-65
2023/06/26 08:32:55;;;;;;;6.20;1.90;;;26.90;45.00;;;;;;5022874;28;20056;-65
2023/06/26 08:35:20;;;;;;;4.15;1.50;;;26.80;45.20;;;;;;5014789;28;21031;-64
2023/06/26 08:37:46;;;;;;;5.40;1.60;;;26.70;45.30;;;;;;5021530;28;20041;-64
2023/06/26 08:40:12;;;;;;;6.85;1.55;;;26.60;45.20;;;;;;5031580;28;20040;-63
2023/06/26 08:42:38;;;;;;;5.88;1.75;;;26.40;45.40;;;;;;5040914;28;20049;-63
2023/06/26 08:45:04;;;;;;;6.28;1.80;;;26.00;45.80;;;;;;5046646;28;20166;-63
2023/06/26 08:47:33;;;;;;;7.88;1.77;;;25.70;46.40;;;;;;5036016;28;20516;-63
2023/06/26 08:50:10;;;;;;;5.18;1.85;;;25.60;46.50;;;;;;5047998;28;20512;-64
2023/06/26 08:52:45;;;;;;;4.05;1.33;;;25.60;46.00;;;;;;5029656;28;20120;-63
2023/06/26 08:55:15;;;;;;;4.35;1.65;;;25.50;44.30;;;;;;5028623;28;20052;-62
2023/06/26 08:57:40;;;;;;;4.17;1.40;;;25.90;45.20;;;;;;5030203;28;20128;-64
2023/06/26 09:00:08;;;;;;;3.00;1.20;;;26.60;43.50;;;;;;5036852;28;20854;-64
2023/06/26 09:02:36;;;;;;;3.55;1.58;;;27.40;43.30;;;;;;5046089;28;20484;-64
2023/06/26 09:05:03;;;;;;;1.42;1.13;;;27.90;42.30;;;;;;5037617;28;20063;-65
2023/06/26 09:07:28;;;;;;;3.95;1.83;;;27.80;42.00;;;;;;5038537;28;20052;-63
2023/06/26 09:09:54;;;;;;;4.63;1.98;;;27.70;41.90;;;;;;5028040;28;20427;-65
2023/06/26 09:12:20;;;;;;;4.70;1.48;;;27.60;41.80;;;;;;5041865;28;20041;-65
2023/06/26 09:14:47;;;;;;;3.72;1.58;;;27.70;42.20;;;;;;5043082;28;20445;-64
2023/06/26 09:17:13;;;;;;;3.38;1.73;;;28.20;41.70;;;;;;5043446;28;20037;-64
2023/06/26 09:19:39;;;;;;;2.35;1.38;;;28.00;41.20;;;;;;5043296;28;20037;-63
2023/06/26 09:22:12;;;;;;;3.45;1.42;;;27.60;41.40;;;;;;5046509;28;20052;-64
2023/06/26 09:24:37;;;;;;;3.78;1.73;;;27.30;42.10;;;;;;5044205;28;20156;-65
2023/06/26 09:27:04;;;;;;;6.57;1.90;;;27.90;41.90;;;;;;5038921;28;20055;-63
2023/06/26 09:29:30;;;;;;;2.83;1.90;;;28.60;40.50;;;;;;5032797;28;20056;-65
2023/06/26 09:31:56;;;;;;;49.60;4.40;;;29.40;39.10;;;;;;5040303;28;20044;-64
2023/06/26 09:34:21;;;;;;;4.90;2.00;;;29.20;38.70;;;;;;5047174;28;20124;-63
2023/06/26 09:36:49;;;;;;;3.75;1.88;;;28.30;39.50;;;;;;5043872;28;20043;-63
2023/06/26 09:39:15;;;;;;;2.97;1.80;;;27.90;40.10;;;;;;5041521;28;20037;-63
2023/06/26 09:41:44;;;;;;;4.55;1.88;;;28.10;40.20;;;;;;5035457;28;20817;-63
2023/06/26 09:44:13;;;;;;;3.88;1.50;;;28.50;38.30;;;;;;5036422;28;20037;-66
2023/06/26 09:46:38;;;;;;;2.88;1.85;;;29.30;38.90;;;;;;5040444;28;20037;-64
2023/06/26 09:49:11;;;;;;;3.55;1.65;;;29.70;37.90;;;;;;5047540;28;20712;-65
2023/06/26 09:51:38;;;;;;;5.25;2.35;;;29.20;37.60;;;;;;5044552;28;20085;-66
2023/06/26 09:54:05;;;;;;;4.10;1.75;;;28.30;38.60;;;;;;5039015;28;20064;-63
2023/06/26 09:56:32;;;;;;;3.25;1.52;;;27.70;38.60;;;;;;5039677;28;20037;-65
2023/06/26 09:59:03;;;;;;;3.42;1.75;;;27.50;39.50;;;;;;5034311;28;20044;-65
2023/06/26 10:01:30;;;;;;;5.75;2.00;;;27.10;39.60;;;;;;5039584;28;20048;-64
2023/06/26 10:03:59;;;;;;;3.78;1.80;;;26.60;40.60;;;;;;5038522;28;20037;-63
2023/06/26 10:06:31;;;;;;;4.17;1.53;;;26.50;40.80;;;;;;5036436;28;20040;-64
2023/06/26 10:08:59;;;;;;;5.20;1.73;;;27.10;40.10;;;;;;5040537;28;20077;-63
2023/06/26 10:11:28;;;;;;;3.05;1.40;;;28.30;38.80;;;;;;5008969;28;20037;-64
2023/06/26 10:13:56;;;;;;;2.83;1.65;;;29.50;37.70;;;;;;5027764;28;20073;-65
2023/06/26 10:16:26;;;;;;;4.30;1.52;;;30.20;36.00;;;;;;5024197;28;20109;-65
2023/06/26 10:18:53;;;;;;;;;;;29.90;34.60;;;;;;5030503;28;20046;-63
2023/06/26 10:21:21;;;;;;;5.07;1.73;;;30.00;33.20;;;;;;5035854;28;19917;-63
2023/06/26 10:23:48;;;;;;;3.72;1.60;;;30.70;33.80;;;;;;5035557;28;20041;-63
2023/06/26 10:26:14;;;;;;;3.72;1.27;;;31.40;32.30;;;;;;5027083;28;20049;-64
2023/06/26 10:28:42;;;;;;;2.47;1.48;;;32.20;31.50;;;;;;5031414;28;20073;-64
2023/06/26 10:31:10;;;;;;;4.78;1.85;;;32.90;30.70;;;;;;5041085;28;20811;-66
2023/06/26 10:33:36;;;;;;;3.00;1.50;;;33.40;30.00;;;;;;5041467;28;20028;-63
2023/06/26 10:36:20;;;;;;;3.75;1.98;;;33.40;30.20;;;;;;5046618;28;20051;-63
2023/06/26 10:38:54;;;;;;;3.30;1.50;;;33.00;29.20;;;;;;5040260;28;20056;-63
2023/06/26 10:41:22;;;;;;;4.25;2.03;;;31.90;30.10;;;;;;5047391;28;20103;-65
2023/06/26 10:44:12;;;;;;;3.72;1.70;;;30.70;31.60;;;;;;5041247;28;20041;-65
2023/06/26 10:46:52;;;;;;;3.47;1.85;;;30.40;31.60;;;;;;5023729;28;20061;-63
2023/06/26 10:49:18;;;;;;;3.92;2.00;;;30.40;32.60;;;;;;5039043;28;20512;-65
2023/06/26 10:51:50;;;;;;;2.72;1.90;;;31.00;32.20;;;;;;5051330;28;20381;-64
2023/06/26 10:54:18;;;;;;;3.55;1.48;;;31.20;30.40;;;;;;5045199;28;20119;-64
2023/06/26 10:56:47;;;;;;;2.67;1.80;;;30.40;30.10;;;;;;5032502;28;20183;-65
2023/06/26 10:59:18;;;;;;;2.00;1.50;;;29.20;32.50;;;;;;5046885;28;20426;-64
2023/06/26 11:01:46;;;;;;;3.10;1.80;;;28.30;32.90;;;;;;5050536;28;20045;-64
2023/06/26 11:04:16;;;;;;;4.40;1.58;;;27.70;34.10;;;;;;5047715;28;20037;-64
2023/06/26 11:06:45;;;;;;;4.82;1.70;;;28.20;34.30;;;;;;5046467;28;20048;-63
2023/06/26 11:09:14;;;;;;;36.05;3.25;;;28.00;34.80;;;;;;5044200;28;20480;-64
2023/06/26 11:11:54;;;;;;;4.57;2.08;;;28.00;35.30;;;;;;5048670;28;20056;-63
2023/06/26 11:14:22;;;;;;;3.28;1.63;;;27.30;35.00;;;;;;5040425;28;20045;-64
2023/06/26 11:16:48;;;;;;;5.22;1.75;;;27.00;35.60;;;;;;5043405;28;20037;-63
2023/06/26 11:19:16;;;;;;;2.90;1.58;;;26.40;35.60;;;;;;5043376;28;20043;-61
2023/06/26 11:21:42;;;;;;;3.88;1.70;;;26.20;35.60;;;;;;5036286;28;20338;-62
2023/06/26 11:24:09;;;;;;;4.47;1.48;;;26.00;36.30;;;;;;5042225;28;20045;-61
2023/06/26 11:26:42;;;;;;;14.15;2.10;;;25.50;36.70;;;;;;5036582;28;20072;-63
2023/06/26 11:29:08;;;;;;;5.15;1.73;;;25.60;37.10;;;;;;5049712;28;20060;-62
2023/06/26 11:31:40;;;;;;;4.10;1.70;;;25.50;37.50;;;;;;5043388;28;20048;-62
2023/06/26 11:34:11;;;;;;;5.05;1.90;;;25.60;37.40;;;;;;5048506;28;20400;-64
2023/06/26 11:36:38;;;;;;;3.08;1.88;;;25.60;37.10;;;;;;5038241;28;20211;-62
2023/06/26 11:39:06;;;;;;;2.75;1.15;;;25.90;36.70;;;;;;5037503;28;20143;-63
2023/06/26 11:41:33;;;;;;;6.22;2.13;;;26.00;35.70;;;;;;5049962;28;20121;-68
2023/06/26 11:44:02;;;;;;;4.20;1.90;;;26.30;36.20;;;;;;5045594;28;20124;-62
2023/06/26 11:46:28;;;;;;;5.22;1.40;;;26.10;35.40;;;;;;5043027;28;20049;-63
2023/06/26 11:48:54;;;;;;;3.75;1.33;;;26.10;35.60;;;;;;5031128;28;20133;-64
2023/06/26 11:51:21;;;;;;;6.15;1.55;;;26.40;35.60;;;;;;5036234;28;20048;-64
2023/06/26 11:53:47;;;;;;;4.43;1.55;;;26.70;35.40;;;;;;5043911;28;20039;-63
2023/06/26 11:56:15;;;;;;;4.25;1.58;;;27.00;35.10;;;;;;5044715;28;20363;-64
2023/06/26 11:58:58;;;;;;;4.05;1.65;;;27.30;34.90;;;;;;5048761;28;20052;-63
2023/06/26 12:01:25;;;;;;;3.90;1.60;;;27.30;33.90;;;;;;5037410;28;20045;-62
2023/06/26 12:03:51;;;;;;;4.18;1.70;;;27.00;34.20;;;;;;5033364;28;20045;-63
2023/06/26 12:06:17;;;;;;;4.60;1.80;;;27.30;34.20;;;;;;5032057;28;20038;-63
2023/06/26 12:08:43;;;;;;;2.90;1.27;;;27.00;34.20;;;;;;5042138;28;20059;-62
2023/06/26 12:11:09;;;;;;;4.22;1.20;;;27.00;33.70;;;;;;5041386;28;20637;-62
2023/06/26 12:13:35;;;;;;;2.33;1.10;;;27.40;33.60;;;;;;5047780;28;20033;-61
2023/06/26 12:16:00;;;;;;;35.33;3.47;;;27.60;33.60;;;;;;5041955;28;20475;-62
2023/06/26 12:18:34;;;;;;;11.75;1.50;;;27.60;34.00;;;;;;5049419;28;20064;-62
2023/06/26 12:21:00;;;;;;;5.75;1.30;;;27.20;33.90;;;;;;5046797;28;20127;-64
2023/06/26 12:23:41;;;;;;;5.28;1.52;;;27.30;34.60;;;;;;5042825;28;20544;-63
2023/06/26 12:26:20;;;;;;;2.92;1.10;;;27.60;34.90;;;;;;5049755;28;20044;-63
2023/06/26 12:28:46;;;;;;;8.88;1.27;;;27.70;34.70;;;;;;5046298;28;20116;-62
2023/06/26 12:31:21;;;;;;;5.43;1.58;;;28.30;34.10;;;;;;5027636;28;20175;-63
2023/06/26 12:33:47;;;;;;;5.10;1.05;;;28.30;32.40;;;;;;5042252;28;20053;-63
2023/06/26 12:36:13;;;;;;;20.63;2.70;;;28.70;33.10;;;;;;5014018;28;20055;-64
2023/06/26 12:38:44;;;;;;;6.93;1.30;;;30.50;31.00;;;;;;5031246;28;20053;-64